Terminal Aerodrome Forecast
Issued by NWS

Current Version | Previous Version | Graphics & Text | Print | Product List | Glossary On
Versions: 1 2 3 4 5 6 7 8 9 10 11 12 13 14 15 16
000
FTUS41 KILN 271125
TAFLCK
TAF
KLCK 271125Z 2712/2812 22004KT 2SM BR SCT025 BKN050
     FM271300 24005KT 6SM BR SCT025 BKN080
     FM272100 21006KT P6SM VCTS SCT025CB BKN090
     FM280000 14004KT P6SM -SHRA VCTS SCT025CB OVC080
     FM280600 16005KT 5SM -SHRA SCT025 OVC030
     FM281000 18004KT 1SM -SHRA OVC005=

USA.gov is the U.S. government's official web portal to all federal, state and local government web resources and services.